createdAt,value
2019-05-30T00:00:17.108Z,14.60
2019-05-30T00:02:41.308Z,14.60
2019-05-30T00:05:10.679Z,14.50
2019-05-30T00:07:39.955Z,14.50
2019-05-30T00:10:09.671Z,14.50
2019-05-30T00:12:39.284Z,14.40
2019-05-30T00:15:09.500Z,14.40
2019-05-30T00:17:38.778Z,14.50
2019-05-30T00:20:08.522Z,14.50
2019-05-30T00:22:37.794Z,14.50
2019-05-30T00:25:07.828Z,14.40
2019-05-30T00:27:37.212Z,14.40
2019-05-30T00:30:23.061Z,14.40
2019-05-30T00:32:38.713Z,14.40
2019-05-30T00:35:08.340Z,14.40
2019-05-30T00:37:37.922Z,14.50
2019-05-30T00:40:08.355Z,14.50
2019-05-30T00:42:37.792Z,14.60
2019-05-30T00:45:19.824Z,14.60
2019-05-30T00:47:38.554Z,14.60
2019-05-30T00:50:08.141Z,14.60
2019-05-30T00:52:37.404Z,14.60
2019-05-30T00:55:07.163Z,14.50
2019-05-30T00:57:36.533Z,14.60
2019-05-30T01:00:07.327Z,14.50
2019-05-30T01:02:36.712Z,14.50
2019-05-30T01:05:08.135Z,14.60
2019-05-30T01:07:37.594Z,14.50
2019-05-30T01:10:08.417Z,14.40
2019-05-30T01:12:37.838Z,14.50
2019-05-30T01:15:09.299Z,14.40
2019-05-30T01:17:38.593Z,14.50
2019-05-30T01:20:09.616Z,14.50
2019-05-30T01:22:38.907Z,14.60
2019-05-30T01:25:08.694Z,14.50
2019-05-30T01:27:38.268Z,14.60
2019-05-30T01:30:08.591Z,14.60
2019-05-30T01:32:37.946Z,14.70
2019-05-30T01:35:10.646Z,14.60
2019-05-30T01:37:39.940Z,14.60
2019-05-30T01:40:10.159Z,14.50
2019-05-30T01:42:39.458Z,14.50
2019-05-30T01:45:09.283Z,14.50
2019-05-30T01:47:38.643Z,14.50
2019-05-30T01:50:11.563Z,14.40
2019-05-30T01:52:40.864Z,14.50
2019-05-30T01:55:10.800Z,14.60
2019-05-30T01:57:40.071Z,14.40
2019-05-30T02:00:20.655Z,14.30
2019-05-30T02:02:43.067Z,14.10
2019-05-30T02:05:12.987Z,13.80
2019-05-30T02:07:42.275Z,13.90
2019-05-30T02:10:12.360Z,14.00
2019-05-30T02:12:41.646Z,13.90
2019-05-30T02:15:11.268Z,13.80
2019-05-30T02:17:40.568Z,13.70
2019-05-30T02:20:10.263Z,13.70
2019-05-30T02:22:39.660Z,13.80
2019-05-30T02:25:10.358Z,13.80
2019-05-30T02:27:39.748Z,13.70
2019-05-30T02:30:12.671Z,13.70
2019-05-30T02:32:41.079Z,13.50
2019-05-30T02:35:12.744Z,13.50
2019-05-30T02:37:41.700Z,13.40
2019-05-30T02:40:14.812Z,13.50
2019-05-30T02:42:42.703Z,13.50
2019-05-30T02:45:12.647Z,13.50
2019-05-30T02:47:42.099Z,13.30
2019-05-30T02:50:13.973Z,13.20
2019-05-30T02:52:43.397Z,13.20
2019-05-30T02:55:13.726Z,13.00
2019-05-30T02:57:43.292Z,12.90
2019-05-30T03:00:16.950Z,12.90
2019-05-30T03:02:44.217Z,12.90
2019-05-30T03:05:14.982Z,12.90
2019-05-30T03:07:45.216Z,12.70
2019-05-30T03:10:15.562Z,12.80
2019-05-30T03:12:44.937Z,12.90
2019-05-30T03:15:15.841Z,12.80
2019-05-30T03:17:45.466Z,12.70
2019-05-30T03:20:22.766Z,12.80
2019-05-30T03:22:45.996Z,12.80
2019-05-30T03:25:16.347Z,12.80
2019-05-30T03:27:46.194Z,12.90
2019-05-30T03:30:25.592Z,12.80
2019-05-30T03:33:12.135Z,12.70
2019-05-30T03:35:28.719Z,12.60
2019-05-30T03:37:49.665Z,12.60
2019-05-30T03:40:20.686Z,12.60
2019-05-30T03:42:50.274Z,12.40
2019-05-30T03:45:19.988Z,12.40
2019-05-30T03:47:52.365Z,12.50
2019-05-30T03:50:24.652Z,12.50
2019-05-30T03:52:54.387Z,12.40
2019-05-30T03:55:24.607Z,12.50
2019-05-30T03:57:59.813Z,12.60
2019-05-30T04:01:05.909Z,12.50
2019-05-30T04:03:41.489Z,12.60
2019-05-30T04:06:26.181Z,12.70
2019-05-30T04:08:58.540Z,12.70
2019-05-30T04:11:33.711Z,12.60
2019-05-30T04:14:06.872Z,12.60
2019-05-30T04:16:36.225Z,12.50
2019-05-30T04:19:05.499Z,12.60
2019-05-30T04:21:34.800Z,12.60
2019-05-30T04:24:07.210Z,12.70
2019-05-30T04:26:36.731Z,12.70
2019-05-30T04:29:07.891Z,12.70
2019-05-30T04:31:37.006Z,12.80
2019-05-30T04:34:06.286Z,12.90
2019-05-30T04:36:37.448Z,13.00
2019-05-30T04:39:08.761Z,13.20
2019-05-30T04:41:38.336Z,13.30
2019-05-30T04:44:09.599Z,13.40
2019-05-30T04:46:38.621Z,13.50
2019-05-30T04:49:09.944Z,13.60
2019-05-30T04:51:39.150Z,13.60
2019-05-30T04:54:10.190Z,13.70
2019-05-30T04:56:39.735Z,13.80
2019-05-30T04:59:10.770Z,13.90
2019-05-30T05:01:40.009Z,14.00
2019-05-30T05:04:09.292Z,14.00
2019-05-30T05:06:38.590Z,14.00
2019-05-30T05:09:08.039Z,14.10
2019-05-30T05:11:37.336Z,14.30
2019-05-30T05:14:06.607Z,14.30
2019-05-30T05:16:36.561Z,14.40
2019-05-30T05:19:06.018Z,14.20
2019-05-30T05:21:35.331Z,14.20
2019-05-30T05:24:04.615Z,14.00
2019-05-30T05:26:33.908Z,14.00
2019-05-30T05:29:03.183Z,14.10
2019-05-30T05:31:32.488Z,14.30
2019-05-30T05:34:01.756Z,14.40
2019-05-30T05:36:31.312Z,14.50
2019-05-30T05:39:00.593Z,14.50
2019-05-30T05:41:29.885Z,14.60
2019-05-30T05:43:59.167Z,14.70
2019-05-30T05:46:28.714Z,14.80
2019-05-30T05:48:58.428Z,14.60
2019-05-30T05:51:28.933Z,14.70
2019-05-30T05:53:58.291Z,14.70
2019-05-30T05:56:27.584Z,14.80
2019-05-30T05:58:57.172Z,14.90
2019-05-30T06:01:26.784Z,14.90
2019-05-30T06:04:11.651Z,14.90
2019-05-30T06:06:27.394Z,14.90
2019-05-30T06:08:57.137Z,15.00
2019-05-30T06:11:26.440Z,15.10
2019-05-30T06:13:55.711Z,15.20
2019-05-30T06:16:26.151Z,15.30
2019-05-30T06:18:55.872Z,15.40
2019-05-30T06:21:25.472Z,15.60
2019-05-30T06:23:55.299Z,15.60
2019-05-30T06:26:25.638Z,15.70
2019-05-30T06:28:55.260Z,15.80
2019-05-30T06:31:24.570Z,16.00
2019-05-30T06:33:53.836Z,16.20
2019-05-30T06:36:23.205Z,16.40
2019-05-30T06:38:52.492Z,16.50
2019-05-30T06:41:21.791Z,16.60
2019-05-30T06:43:51.340Z,16.70
2019-05-30T06:46:20.635Z,16.80
2019-05-30T06:48:50.253Z,16.80
2019-05-30T06:51:20.983Z,16.90
2019-05-30T06:53:50.369Z,16.80
2019-05-30T06:56:19.656Z,16.60
2019-05-30T06:58:49.261Z,16.50
2019-05-30T07:01:18.753Z,16.50
2019-05-30T07:03:48.118Z,16.50
2019-05-30T07:06:18.026Z,16.50
2019-05-30T07:08:47.643Z,16.50
2019-05-30T07:11:16.943Z,16.50
2019-05-30T07:13:46.253Z,16.50
2019-05-30T07:16:15.840Z,16.60
2019-05-30T07:18:45.149Z,16.70
2019-05-30T07:21:14.430Z,16.80
2019-05-30T07:23:44.049Z,16.90
2019-05-30T07:26:13.344Z,16.90
2019-05-30T07:28:42.948Z,16.90
2019-05-30T07:31:12.248Z,16.90
2019-05-30T07:33:41.535Z,17.00
2019-05-30T07:36:10.839Z,17.20
2019-05-30T07:38:40.137Z,17.40
2019-05-30T07:41:09.412Z,17.50
2019-05-30T07:43:38.720Z,17.50
2019-05-30T07:46:08.272Z,17.60
2019-05-30T07:48:38.611Z,17.50
2019-05-30T07:51:08.101Z,17.40
2019-05-30T07:53:37.395Z,17.40
2019-05-30T07:56:06.683Z,17.50
2019-05-30T07:58:37.327Z,17.90
2019-05-30T08:01:06.769Z,18.10
2019-05-30T08:03:36.042Z,18.40
2019-05-30T08:06:05.571Z,18.80
2019-05-30T08:08:36.024Z,18.90
2019-05-30T08:11:09.477Z,19.10
2019-05-30T08:13:37.323Z,19.40
2019-05-30T08:16:06.752Z,19.70
2019-05-30T08:18:36.039Z,19.60
2019-05-30T08:21:05.327Z,19.90
2019-05-30T08:23:34.603Z,20.40
2019-05-30T08:26:04.034Z,20.40
2019-05-30T08:28:34.292Z,20.20
2019-05-30T08:31:03.785Z,19.90
2019-05-30T08:33:33.557Z,19.80
2019-05-30T08:36:05.574Z,19.90
2019-05-30T08:38:35.184Z,19.90
2019-05-30T08:41:04.709Z,20.00
2019-05-30T08:43:35.464Z,20.10
2019-05-30T08:46:08.196Z,20.00
2019-05-30T08:48:38.299Z,20.20
2019-05-30T08:51:07.720Z,20.20
2019-05-30T08:53:37.013Z,20.20
2019-05-30T08:56:06.295Z,20.10
2019-05-30T08:58:36.792Z,20.00
2019-05-30T09:01:06.531Z,20.10
2019-05-30T09:03:35.902Z,20.30
2019-05-30T09:06:05.239Z,20.30
2019-05-30T09:08:35.861Z,20.20
2019-05-30T09:11:05.389Z,20.30
2019-05-30T09:13:34.675Z,20.30
2019-05-30T09:16:04.044Z,20.10
2019-05-30T09:18:33.588Z,20.10
2019-05-30T09:21:02.877Z,20.00
2019-05-30T09:23:32.170Z,20.00
2019-05-30T09:26:01.448Z,20.10
2019-05-30T09:28:30.745Z,20.10
2019-05-30T09:31:00.033Z,20.40
2019-05-30T09:33:29.307Z,20.50
2019-05-30T09:36:12.100Z,20.50
2019-05-30T09:38:29.864Z,20.70
2019-05-30T09:40:59.171Z,20.90
2019-05-30T09:43:28.827Z,21.00
2019-05-30T09:45:58.088Z,20.90
2019-05-30T09:48:27.655Z,21.00
2019-05-30T09:50:56.938Z,21.10
2019-05-30T09:53:26.223Z,21.10
2019-05-30T09:55:55.499Z,21.20
2019-05-30T09:58:24.791Z,21.30
2019-05-30T10:00:54.072Z,21.10
2019-05-30T10:03:23.367Z,21.00
2019-05-30T10:05:52.729Z,21.10
2019-05-30T10:08:22.064Z,21.00
2019-05-30T10:10:51.430Z,21.20
2019-05-30T10:13:20.716Z,21.30
2019-05-30T10:15:50.497Z,21.60
2019-05-30T10:18:19.868Z,21.70
2019-05-30T10:20:49.450Z,21.80
2019-05-30T10:23:19.122Z,21.80
2019-05-30T10:25:49.499Z,21.80
2019-05-30T10:28:18.875Z,21.80
2019-05-30T10:30:53.560Z,21.80
2019-05-30T10:33:32.360Z,21.90
2019-05-30T10:36:02.000Z,22.10
2019-05-30T10:38:31.584Z,22.40
2019-05-30T10:41:00.863Z,22.50
2019-05-30T10:43:30.164Z,22.60
2019-05-30T10:45:59.436Z,22.60
2019-05-30T10:48:28.731Z,22.90
2019-05-30T10:50:58.032Z,22.80
2019-05-30T10:53:27.303Z,22.90
2019-05-30T10:55:56.620Z,23.00
2019-05-30T10:58:25.919Z,23.10
2019-05-30T11:00:59.120Z,23.30
2019-05-30T11:03:28.867Z,23.90
2019-05-30T11:06:07.304Z,24.20
2019-05-30T11:08:38.924Z,24.20
2019-05-30T11:11:08.226Z,24.20
2019-05-30T11:13:37.776Z,24.10
2019-05-30T11:16:07.054Z,23.80
2019-05-30T11:18:36.356Z,23.80
2019-05-30T11:21:05.660Z,23.70
2019-05-30T11:23:35.028Z,23.50
2019-05-30T11:26:04.695Z,23.50
2019-05-30T11:28:34.036Z,23.70
2019-05-30T11:31:04.717Z,23.70
2019-05-30T11:33:34.310Z,23.80
2019-05-30T11:36:03.588Z,23.90
2019-05-30T11:38:32.944Z,23.80
2019-05-30T11:41:02.545Z,23.70
2019-05-30T11:43:31.822Z,23.80
2019-05-30T11:46:01.092Z,23.80
2019-05-30T11:48:30.384Z,23.80
2019-05-30T11:51:00.022Z,23.50
2019-05-30T11:53:29.585Z,23.50
2019-05-30T11:56:00.349Z,23.60
2019-05-30T11:58:30.016Z,23.80
2019-05-30T12:01:00.602Z,23.70
2019-05-30T12:03:29.988Z,23.80
2019-05-30T12:05:59.263Z,23.80
2019-05-30T12:08:28.842Z,23.80
2019-05-30T12:10:59.320Z,23.70
2019-05-30T12:13:28.785Z,23.40
2019-05-30T12:15:59.523Z,23.20
2019-05-30T12:18:29.031Z,23.10
2019-05-30T12:20:59.764Z,23.00
2019-05-30T12:23:29.169Z,23.10
2019-05-30T12:25:58.467Z,23.30
2019-05-30T12:28:27.737Z,23.30
2019-05-30T12:31:01.730Z,23.30
2019-05-30T12:33:28.603Z,23.10
2019-05-30T12:35:58.531Z,22.90
2019-05-30T12:38:27.959Z,22.60
2019-05-30T12:41:04.770Z,22.60
2019-05-30T12:43:34.411Z,22.70
2019-05-30T12:46:03.787Z,22.80
2019-05-30T12:48:33.140Z,23.10
2019-05-30T12:51:03.437Z,23.00
2019-05-30T12:53:32.884Z,22.90
2019-05-30T12:56:02.670Z,22.90
2019-05-30T12:58:32.034Z,23.10
2019-05-30T13:01:02.879Z,23.30
2019-05-30T13:03:32.350Z,23.20
2019-05-30T13:06:01.620Z,23.40
2019-05-30T13:08:30.887Z,23.70
2019-05-30T13:11:01.546Z,24.00
2019-05-30T13:13:31.451Z,24.10
2019-05-30T13:16:02.973Z,24.40
2019-05-30T13:18:31.757Z,24.60
2019-05-30T13:21:02.078Z,24.60
2019-05-30T13:23:31.401Z,24.60
2019-05-30T13:26:01.946Z,24.30
2019-05-30T13:28:31.551Z,24.30
2019-05-30T13:31:02.232Z,24.50
2019-05-30T13:33:31.715Z,24.80
2019-05-30T13:36:01.095Z,24.90
2019-05-30T13:38:30.516Z,25.50
2019-05-30T13:40:59.799Z,25.50
2019-05-30T13:43:29.084Z,25.00
2019-05-30T13:45:58.380Z,24.90
2019-05-30T13:48:27.660Z,24.70
2019-05-30T13:50:57.007Z,24.70
2019-05-30T13:53:26.444Z,24.40
2019-05-30T13:55:55.743Z,24.10
2019-05-30T13:58:25.018Z,24.00
2019-05-30T14:00:54.434Z,23.90
2019-05-30T14:03:23.726Z,23.70
2019-05-30T14:05:53.239Z,23.70
2019-05-30T14:08:22.515Z,23.70
2019-05-30T14:10:51.839Z,23.90
2019-05-30T14:13:21.246Z,23.80
2019-05-30T14:15:50.505Z,23.70
2019-05-30T14:18:19.860Z,23.70
2019-05-30T14:20:49.152Z,23.70
2019-05-30T14:23:18.475Z,23.60
2019-05-30T14:25:47.839Z,23.40
2019-05-30T14:28:17.139Z,23.30
2019-05-30T14:30:46.410Z,23.30
2019-05-30T14:33:15.773Z,23.40
2019-05-30T14:35:45.276Z,23.50
2019-05-30T14:38:14.659Z,23.40
2019-05-30T14:40:44.168Z,23.50
2019-05-30T14:43:13.687Z,23.70
2019-05-30T14:45:43.001Z,23.70
2019-05-30T14:48:12.603Z,23.70
2019-05-30T14:50:42.203Z,24.00
2019-05-30T14:53:12.973Z,24.70
2019-05-30T14:55:42.367Z,25.20
2019-05-30T14:58:13.212Z,25.40
2019-05-30T15:00:43.155Z,25.00
2019-05-30T15:03:15.772Z,25.10
2019-05-30T15:05:43.618Z,25.20
2019-05-30T15:08:12.898Z,25.00
2019-05-30T15:10:42.190Z,25.00
2019-05-30T15:13:11.724Z,24.80
2019-05-30T15:15:41.239Z,24.80
2019-05-30T15:18:11.373Z,25.00
2019-05-30T15:20:40.823Z,25.20
2019-05-30T15:23:11.626Z,25.10
2019-05-30T15:25:42.179Z,24.70
2019-05-30T15:28:12.193Z,24.40
2019-05-30T15:30:41.575Z,24.20
2019-05-30T15:33:10.910Z,23.70
2019-05-30T15:35:40.315Z,23.70
2019-05-30T15:38:10.605Z,23.90
2019-05-30T15:40:40.222Z,24.00
2019-05-30T15:43:09.522Z,24.00
2019-05-30T15:45:39.064Z,24.00
2019-05-30T15:48:08.368Z,23.80
2019-05-30T15:50:37.972Z,23.80
2019-05-30T15:53:08.862Z,23.70
2019-05-30T15:55:38.360Z,23.70
2019-05-30T15:58:07.923Z,23.60
2019-05-30T16:00:37.237Z,23.70
2019-05-30T16:03:06.488Z,23.70
2019-05-30T16:05:35.780Z,23.80
2019-05-30T16:08:05.043Z,23.60
2019-05-30T16:10:36.762Z,23.20
2019-05-30T16:13:05.303Z,22.90
2019-05-30T16:15:34.872Z,22.70
2019-05-30T16:18:04.415Z,22.40
2019-05-30T16:20:33.716Z,22.20
2019-05-30T16:23:02.999Z,22.10
2019-05-30T16:25:32.590Z,22.00
2019-05-30T16:28:01.885Z,21.90
2019-05-30T16:30:31.159Z,21.90
2019-05-30T16:33:00.471Z,21.90
2019-05-30T16:35:29.740Z,21.90
2019-05-30T16:37:59.048Z,22.00
2019-05-30T16:40:28.330Z,22.10
2019-05-30T16:42:57.623Z,22.20
2019-05-30T16:45:26.917Z,22.20
2019-05-30T16:47:56.184Z,22.30
2019-05-30T16:50:25.498Z,22.20
2019-05-30T16:52:54.819Z,22.10
2019-05-30T16:55:24.160Z,22.00
2019-05-30T16:57:53.455Z,22.00
2019-05-30T17:00:24.646Z,21.90
2019-05-30T17:02:53.919Z,21.90
2019-05-30T17:05:23.556Z,21.70
2019-05-30T17:07:52.843Z,21.80
2019-05-30T17:10:29.506Z,21.80
2019-05-30T17:12:53.395Z,21.90
2019-05-30T17:15:24.005Z,21.90
2019-05-30T17:17:53.371Z,21.90
2019-05-30T17:20:22.992Z,21.80
2019-05-30T17:22:52.550Z,21.80
2019-05-30T17:25:23.100Z,21.70
2019-05-30T17:27:52.946Z,21.70
2019-05-30T17:30:23.721Z,21.60
2019-05-30T17:32:53.138Z,21.70
2019-05-30T17:35:24.018Z,21.70
2019-05-30T17:37:53.432Z,21.80
2019-05-30T17:40:39.087Z,21.80
2019-05-30T17:42:53.743Z,21.80
2019-05-30T17:45:23.243Z,21.80
2019-05-30T17:48:02.566Z,21.90
2019-05-30T17:50:23.829Z,21.90
2019-05-30T17:52:53.329Z,21.90
2019-05-30T17:55:23.861Z,21.80
2019-05-30T17:57:53.267Z,21.70
2019-05-30T18:00:24.411Z,21.70
2019-05-30T18:02:53.808Z,21.60
2019-05-30T18:05:24.480Z,21.50
2019-05-30T18:07:54.037Z,21.30
2019-05-30T18:10:23.503Z,21.30
2019-05-30T18:12:53.026Z,21.20
2019-05-30T18:15:26.275Z,21.10
2019-05-30T18:17:54.167Z,21.00
2019-05-30T18:20:23.522Z,20.90
2019-05-30T18:22:53.016Z,20.90
2019-05-30T18:25:23.488Z,20.90
2019-05-30T18:27:53.131Z,20.80
2019-05-30T18:30:25.850Z,20.60
2019-05-30T18:32:55.152Z,20.50
2019-05-30T18:35:24.430Z,20.40
2019-05-30T18:37:53.723Z,20.40
2019-05-30T18:40:36.891Z,20.30
2019-05-30T18:43:06.279Z,20.20
2019-05-30T18:45:39.983Z,20.10
2019-05-30T18:48:10.492Z,20.10
2019-05-30T18:50:40.243Z,20.00
2019-05-30T18:53:10.109Z,19.90
2019-05-30T18:55:39.687Z,19.90
2019-05-30T18:58:08.972Z,19.80
2019-05-30T19:00:38.239Z,19.80
2019-05-30T19:03:07.843Z,19.70
2019-05-30T19:05:37.228Z,19.60
2019-05-30T19:08:06.537Z,19.60
2019-05-30T19:10:36.635Z,19.60
2019-05-30T19:13:06.076Z,19.50
2019-05-30T19:15:35.468Z,19.40
2019-05-30T19:18:04.858Z,19.40
2019-05-30T19:20:34.157Z,19.30
2019-05-30T19:23:03.756Z,19.30
2019-05-30T19:25:33.962Z,19.20
2019-05-30T19:28:03.400Z,19.20
2019-05-30T19:30:32.930Z,19.20
2019-05-30T19:33:02.198Z,19.10
2019-05-30T19:35:31.497Z,19.10
2019-05-30T19:38:00.808Z,19.00
2019-05-30T19:40:31.535Z,19.00
2019-05-30T19:43:00.994Z,19.00
2019-05-30T19:45:30.335Z,18.90
2019-05-30T19:47:59.688Z,18.90
2019-05-30T19:50:29.088Z,18.90
2019-05-30T19:52:59.020Z,18.90
2019-05-30T19:55:29.091Z,18.90
2019-05-30T19:57:58.446Z,18.90
2019-05-30T20:00:28.014Z,18.90
2019-05-30T20:02:57.368Z,18.90
2019-05-30T20:05:26.699Z,18.80
2019-05-30T20:07:55.979Z,18.60
2019-05-30T20:10:25.443Z,18.60
2019-05-30T20:12:54.705Z,18.50
2019-05-30T20:15:24.646Z,18.60
2019-05-30T20:17:53.935Z,18.60
2019-05-30T20:20:23.235Z,18.60
2019-05-30T20:22:52.519Z,18.70
2019-05-30T20:25:22.583Z,18.60
2019-05-30T20:27:51.888Z,18.60
2019-05-30T20:30:21.770Z,18.60
2019-05-30T20:32:51.047Z,18.60
2019-05-30T20:35:20.418Z,18.60
2019-05-30T20:37:49.691Z,18.60
2019-05-30T20:40:19.055Z,18.70
2019-05-30T20:42:48.333Z,18.60
2019-05-30T20:45:18.763Z,18.50
2019-05-30T20:47:48.041Z,18.50
2019-05-30T20:50:17.905Z,18.50
2019-05-30T20:52:47.607Z,18.50
2019-05-30T20:55:17.197Z,18.40
2019-05-30T20:57:46.869Z,18.40
2019-05-30T21:00:18.329Z,18.30
2019-05-30T21:02:47.895Z,18.40
2019-05-30T21:05:17.529Z,18.40
2019-05-30T21:07:48.364Z,18.40
2019-05-30T21:10:18.484Z,18.40
2019-05-30T21:12:50.702Z,18.40
2019-05-30T21:15:20.305Z,18.50
2019-05-30T21:17:51.131Z,18.50
2019-05-30T21:20:20.411Z,18.40
2019-05-30T21:22:49.711Z,18.40
2019-05-30T21:25:19.667Z,18.30
2019-05-30T21:27:48.990Z,18.10
2019-05-30T21:30:18.491Z,18.10
2019-05-30T21:32:48.515Z,18.10
2019-05-30T21:35:18.228Z,18.10
2019-05-30T21:37:47.940Z,18.20
2019-05-30T21:40:17.247Z,18.20
2019-05-30T21:43:03.082Z,18.10
2019-05-30T21:45:17.670Z,18.10
2019-05-30T21:47:46.984Z,18.10
2019-05-30T21:50:16.892Z,18.10
2019-05-30T21:52:47.900Z,18.00
2019-05-30T21:55:17.413Z,18.00
2019-05-30T21:57:46.704Z,18.00
2019-05-30T22:00:20.866Z,18.00
2019-05-30T22:02:54.719Z,18.00
2019-05-30T22:05:24.482Z,18.00
2019-05-30T22:07:53.771Z,18.00
2019-05-30T22:10:23.343Z,18.10
2019-05-30T22:12:52.645Z,18.00
2019-05-30T22:15:22.247Z,18.00
2019-05-30T22:17:52.034Z,18.00
2019-05-30T22:20:21.440Z,18.00
2019-05-30T22:22:50.723Z,17.90
2019-05-30T22:25:20.271Z,17.90
2019-05-30T22:27:50.566Z,18.00
2019-05-30T22:30:20.475Z,18.00
2019-05-30T22:32:50.774Z,17.90
2019-05-30T22:35:20.144Z,17.90
2019-05-30T22:37:49.423Z,17.90
2019-05-30T22:40:18.797Z,17.90
2019-05-30T22:42:48.349Z,17.90
2019-05-30T22:45:17.638Z,17.90
2019-05-30T22:47:46.931Z,17.90
2019-05-30T22:50:16.228Z,17.80
2019-05-30T22:52:46.744Z,17.80
2019-05-30T22:55:16.490Z,17.70
2019-05-30T22:57:46.435Z,17.80
2019-05-30T23:00:15.976Z,17.70
2019-05-30T23:02:45.881Z,17.70
2019-05-30T23:05:15.423Z,17.60
2019-05-30T23:07:45.292Z,17.50
2019-05-30T23:10:14.919Z,17.50
2019-05-30T23:12:45.799Z,17.40
2019-05-30T23:15:15.294Z,17.40
2019-05-30T23:17:46.201Z,17.40
2019-05-30T23:20:15.672Z,17.40
2019-05-30T23:22:44.954Z,17.30
2019-05-30T23:25:14.332Z,17.20
2019-05-30T23:27:43.631Z,17.30
2019-05-30T23:30:13.149Z,17.30
2019-05-30T23:32:42.464Z,17.30
2019-05-30T23:35:11.743Z,17.40
2019-05-30T23:37:41.064Z,17.40
2019-05-30T23:40:10.684Z,17.40
2019-05-30T23:42:40.043Z,17.30
2019-05-30T23:45:09.891Z,17.40
2019-05-30T23:47:39.194Z,17.40
2019-05-30T23:50:09.092Z,17.40
2019-05-30T23:52:38.401Z,17.40
2019-05-30T23:55:08.307Z,17.40
2019-05-30T23:57:37.604Z,17.40
